• Join FlightAware (Why Join?)
  • Login
  • US Flag 
10:36PM EDT


 

Airport Tracker/Info


-or-


 

Live Flight TrackerFlight Track Log ✈ RPA3159 ✈ 11-May-2013 ✈ KBTV - KPHL

Flight Track Log - Related Links

Times and Time Zones

All times are in EDT time to prevent confusion due to time zone crossing. See the RPA3159 flight status page for this flight to view local times or setup timezone preferences in your user account.

Time Position Orientation Groundspeed Altitude Reporting Facility
EDT Latitude Longitude Course Direction KTS MPH feet Rate Location/Type
11:41AM 44.2016 -73.2500 180° South  Level FlightAware Approximate
11:41AM 44.3550 -73.1600 195° South 201 231 5,100  Level Boston Center
11:42AM 44.1127 -73.2828 195° South  Level FlightAware Approximate
11:42AM 44.2881 -73.1883 197° South 237 273 8,500  Level Boston Center
11:43AM 44.0234 -73.3144 194° South  Level FlightAware Approximate
11:43AM 44.2169 -73.2164 196° South 263 303 11,100  Level Boston Center
11:44AM 43.9339 -73.3443 193° South  Level FlightAware Approximate
11:44AM 44.1439 -73.2472 197° South 289 333 13,700  Level Boston Center
11:45AM 43.8449 -73.3770 195° South  Level FlightAware Approximate
11:45AM 44.0644 -73.2781 196° South 298 343 16,400  Level Boston Center
11:46AM 43.7560 -73.4104 195° South  Level FlightAware Approximate
11:46AM 43.9828 -73.3258 203° Southwest 309 356 19,200  Level Boston Center
11:47AM 43.6671 -73.4436 195° South  Level FlightAware Approximate
11:47AM 43.9094 -73.3939 214° Southwest 321 369 21,300  Level Boston Center
11:48AM 43.8339 -73.4647 214° Southwest 329 379 23,600 2,040 Climbing Boston Center
11:49AM 43.7308 -73.5578 213° Southwest 340 391 25,800 1,200 Climbing Boston Center
11:50AM 43.6531 -73.6308 214° Southwest 340 391 26,000 60 Climbing Boston Center
11:51AM 43.5878 -73.6897 213° Southwest 346 398 26,000  Level Boston Center
11:52AM 43.4950 -73.7767 214° Southwest 346 398 26,000  Level Boston Center
11:53AM 43.4169 -73.8492 214° Southwest 346 398 26,000  Level Boston Center
11:54AM 43.3369 -73.9189 212° Southwest 346 398 26,000  Level Boston Center
11:55AM 43.2569 -73.9908 213° Southwest 346 398 26,000  Level Boston Center
11:56AM 43.1786 -74.0658 215° Southwest 351 404 26,000  Level Boston Center
11:57AM 43.1006 -74.1350 213° Southwest 351 404 26,000  Level Boston Center
11:58AM 43.0244 -74.2067 215° Southwest 351 404 26,000  Level Boston Center
11:59AM 42.9419 -74.2781 212° Southwest 351 404 26,000  Level Boston Center
12:00PM 42.8636 -74.3522 215° Southwest 351 404 26,000  Level Boston Center
12:01PM 42.7811 -74.4258 213° Southwest 351 404 26,000  Level Boston Center
12:02PM 42.7028 -74.4942 213° Southwest 351 404 26,000  Level Boston Center
12:03PM 42.6244 -74.5647 214° Southwest 351 404 26,000  Level Boston Center
12:04PM 42.5458 -74.6356 214° Southwest 351 404 26,000  Level Boston Center
12:05PM 42.4653 -74.7058 213° Southwest 346 398 26,000 -120 Level Boston Center
12:07PM 42.3244 -74.8292 213° Southwest 346 398 25,700 -660 Descending New York Center
12:08PM 42.2450 -74.9000 213° Southwest 346 398 24,200 -1,500 Descending New York Center
12:09PM 42.1697 -74.9681 214° Southwest 340 391 22,700 -1,380 Descending New York Center
12:10PM 42.1011 -75.0250 212° Southwest 335 386 21,500 -1,380 Descending New York Center
12:11PM 42.0261 -75.0872 212° Southwest 330 380 20,000 -1,260 Descending New York Center
12:12PM 41.9444 -75.1544 211° Southwest 330 380 19,000 -540 Descending New York Center
12:13PM 41.8781 -75.2056 210° Southwest 324 373 19,000  Level New York Center
12:14PM 41.8028 -75.2675 212° Southwest 324 373 19,000 -60 Level New York Center
12:15PM 41.7211 -75.3342 211° Southwest 324 373 18,900 -1,080 Descending New York Center
12:16PM 41.6461 -75.3928 210° Southwest 324 373 16,900 -1,920 Descending New York Center
12:17PM 41.5772 -75.4492 211° Southwest 319 367 15,200 -1,800 Descending New York Center
12:18PM 41.5128 -75.5000 211° Southwest 313 360 13,400 -1,680 Descending New York Center
12:19PM 41.4331 -75.5636 211° Southwest 308 354 11,900 -780 Descending New York Center
12:20PM 41.3619 -75.6192 210° Southwest 308 354 11,900 -300 Level New York Center
12:21PM 41.2975 -75.6728 212° Southwest 308 354 11,300 -900 Descending New York Center
12:22PM 41.2111 -75.6911 189° South 283 326 10,100 -720 Descending New York Center
12:23PM 41.1392 -75.6722 169° South 283 326 9,900 -120 Descending New York Center
12:24PM 41.0547 -75.6442 166° South 298 343 9,900  Level New York Center
12:25PM 40.9747 -75.6164 165° South 304 350 10,000  Climbing New York Center
12:26PM 40.8822 -75.5850 166° South 304 350 10,000  Level New York Center
12:27PM 40.8022 -75.5547 164° South 304 350 10,000  Level New York Center
12:28PM 40.7242 -75.5272 165° South 304 350 10,000  Level New York Center
12:29PM 40.6439 -75.5000 166° South 297 342 10,000  Level New York Center
12:30PM 40.5639 -75.4725 165° South 297 342 10,000  Level New York Center
12:31PM 40.4836 -75.4453 166° South 297 342 10,000 -120 Level New York Center
12:32PM 40.4119 -75.4103 160° South 291 335 9,800 -1,080 Descending New York Center
12:33PM 40.3511 -75.3681 152° Southeast 278 320 8,000 -1,800 Descending New York Center
12:34PM 40.2864 -75.3175 149° Southeast 273 314 6,200 -1,020 Descending New York Center
12:35PM 40.2217 -75.2672 149° Southeast 273 314 6,000 -120 Descending New York Center
12:36PM 40.1467 -75.2081 149° Southeast 278 320 6,000  Level New York Center
12:37PM 40.0881 -75.1636 150° Southeast 278 320 6,000  Level New York Center
12:37PM 40.0667 -75.1333 133° Southeast 270 311 6,000  Level Philadelphia TRACON
12:38PM 40.0167 -75.1000 153° Southeast 194 223 6,000 -420 Level Philadelphia TRACON
12:39PM 40.0000 -75.0167 105° East 249 287 5,200 -1,080 Descending Philadelphia TRACON
12:40PM 39.9833 -74.9667 113° Southeast 197 227 4,000 -720 Descending Philadelphia TRACON
12:41PM 39.9333 -74.9833 194° South 169 194 3,800 -480 Descending Philadelphia TRACON
12:42PM 39.9167 -75.0333 247° West 143 165 3,000 -900 Descending Philadelphia TRACON
12:43PM 39.9000 -75.0833 247° West 157 181 2,100 -840 Descending Philadelphia TRACON
12:44PM 39.9000 -75.1333 270° West 136 157 1,400 -720 Descending Philadelphia TRACON